Terminal Aerodrome Forecast
Issued by NWS

Home | Current Version | Previous Version | Text Only | Print | Product List | Glossary On
Versions: 1 2 3 4 5 6 7 8 9 10 11 12 13
000
FTUS41 KLWX 202300 RRA
TAFMTN
TAF
KMTN 202348Z 2100/2124 14005KT P6SM SCT250
     FM210500 00000KT P6SM BKN250
     FM211000 00000KT 3SM BR BKN250
     FM211400 07004KT P6SM SCT250
     FM211700 23005KT P6SM SCT250
      AMD NOT SKED 2102/2112=

USA.gov is the U.S. government's official web portal to all federal, state and local government web resources and services.